Time;durP1;ratioP1;P1;durP2;ratioP2;P2;SDS_P1;SDS_P2;PMS_P1;PMS_P2;Temp;Humidity;BMP_temperature;BMP_pressure;BME280_temperature;BME280_humidity;BME280_pressure;Samples;Min_cycle;Max_cycle;Signal;HPM_P1;HPM_P2
2024/04/10 00:00:38;;;;;;;6.50;2.85;;;7.20;99.90;;;6.47;100.00;102475.53;4400211;26;20057;-59
2024/04/10 00:02:40;;;;;;;7.93;2.60;;;7.20;99.90;;;6.44;100.00;102466.97;4400162;26;20001;-59
2024/04/10 00:04:41;;;;;;;11.38;3.33;;;7.20;99.90;;;6.39;100.00;102459.38;4399778;26;20009;-59
2024/04/10 00:06:42;;;;;;;11.85;3.47;;;7.10;99.90;;;6.41;100.00;102470.63;4400013;26;20018;-59
2024/04/10 00:08:42;;;;;;;7.72;3.50;;;7.10;99.90;;;6.39;100.00;102469.84;4399821;26;20025;-59
2024/04/10 00:10:43;;;;;;;14.27;5.15;;;7.10;99.90;;;6.35;100.00;102460.50;4400307;26;20026;-59
2024/04/10 00:12:44;;;;;;;14.05;5.10;;;7.10;99.90;;;6.39;100.00;102471.66;4399943;26;20438;-59
2024/04/10 00:14:45;;;;;;;10.77;3.80;;;7.10;99.90;;;6.38;100.00;102467.34;4399904;27;20001;-59
2024/04/10 00:16:46;;;;;;;10.90;4.47;;;7.00;99.90;;;6.33;100.00;102461.50;4399787;26;20022;-60
2024/04/10 00:18:46;;;;;;;8.02;3.58;;;7.00;99.90;;;6.29;100.00;102455.59;4399946;26;20016;-59
2024/04/10 00:20:47;;;;;;;9.98;4.22;;;7.00;99.90;;;6.31;100.00;102453.72;4399653;26;20080;-59
2024/04/10 00:22:48;;;;;;;8.07;3.55;;;7.00;99.90;;;6.35;100.00;102451.78;4399389;26;19998;-59
2024/04/10 00:24:52;;;;;;;8.85;3.17;;;7.10;99.90;;;6.35;100.00;102455.25;4400017;26;20002;-59
2024/04/10 00:26:53;;;;;;;13.95;4.35;;;7.10;99.90;;;6.35;100.00;102455.25;4399720;26;20009;-59
2024/04/10 00:28:54;;;;;;;8.43;3.42;;;7.10;99.90;;;6.34;100.00;102450.06;4399696;26;20001;-59
2024/04/10 00:30:56;;;;;;;12.30;4.00;;;7.10;99.90;;;6.33;100.00;102445.78;4399546;26;19998;-59
2024/04/10 00:32:57;;;;;;;10.63;4.18;;;7.10;99.90;;;6.33;100.00;102451.03;4399689;26;20002;-59
2024/04/10 00:34:58;;;;;;;19.55;7.60;;;7.10;99.90;;;6.37;100.00;102456.00;4399626;26;20398;-59
2024/04/10 00:36:59;;;;;;;13.98;5.05;;;7.10;99.90;;;6.34;100.00;102457.94;4399642;26;20042;-59
2024/04/10 00:39:00;;;;;;;19.55;5.57;;;7.10;99.90;;;6.42;100.00;102472.28;4399656;26;20025;-59
2024/04/10 00:41:05;;;;;;;14.43;5.18;;;7.10;99.90;;;6.41;100.00;102467.16;4402040;26;20395;-59
2024/04/10 00:43:12;;;;;;;13.70;4.18;;;7.10;99.90;;;6.40;100.00;102465.47;4402521;26;20019;-59
2024/04/10 00:45:13;;;;;;;8.27;4.32;;;7.10;99.90;;;6.39;100.00;102469.03;4402306;26;20006;-59
2024/04/10 00:47:14;;;;;;;10.48;3.63;;;7.10;99.90;;;6.33;100.00;102462.34;4402231;26;20012;-59
2024/04/10 00:49:16;;;;;;;10.65;2.90;;;7.10;99.90;;;6.34;100.00;102461.41;4400360;26;20358;-59
2024/04/10 00:51:23;;;;;;;9.80;2.90;;;7.00;99.90;;;6.33;100.00;102457.09;4402210;26;20016;-59
2024/04/10 00:53:25;;;;;;;9.20;2.78;;;7.10;99.90;;;6.36;100.00;102451.69;4402113;26;20002;-59
2024/04/10 00:55:27;;;;;;;7.55;3.08;;;7.10;99.90;;;6.37;100.00;102448.13;4400288;26;20001;-59
2024/04/10 00:57:28;;;;;;;13.15;2.95;;;7.10;99.90;;;6.35;100.00;102442.16;4400384;27;20431;-59
2024/04/10 00:59:30;;;;;;;11.85;3.22;;;7.10;99.90;;;6.38;100.00;102449.84;4402097;26;20002;-59
2024/04/10 01:01:31;;;;;;;9.80;3.08;;;7.10;99.90;;;6.35;100.00;102450.00;4400310;26;20376;-59
2024/04/10 01:03:34;;;;;;;7.82;2.30;;;7.10;99.90;;;6.32;100.00;102450.19;4402200;26;20002;-59
2024/04/10 01:05:35;;;;;;;8.73;2.40;;;7.10;99.90;;;6.30;100.00;102452.03;4401618;26;20434;-59
2024/04/10 01:07:36;;;;;;;4.78;1.63;;;7.00;99.90;;;6.21;100.00;102442.09;4401623;26;20033;-59
2024/04/10 01:09:37;;;;;;;7.55;1.90;;;7.00;99.90;;;6.26;100.00;102462.78;4401948;26;20030;-59
2024/04/10 01:11:38;;;;;;;8.23;1.77;;;7.00;99.90;;;6.25;100.00;102466.31;4402018;26;20071;-59
2024/04/10 01:13:38;;;;;;;7.82;1.83;;;7.00;99.90;;;6.22;100.00;102458.63;4401702;26;20018;-59
2024/04/10 01:15:39;;;;;;;8.38;2.20;;;7.00;99.90;;;6.26;100.00;102470.66;4402094;26;20017;-59
2024/04/10 01:17:41;;;;;;;9.55;2.42;;;7.00;99.90;;;6.26;100.00;102468.88;4401780;26;20020;-59
2024/04/10 01:19:41;;;;;;;7.65;1.90;;;7.00;99.90;;;6.22;100.00;102464.72;4401705;27;20033;-59
2024/04/10 01:21:42;;;;;;;11.63;2.42;;;7.00;99.90;;;6.27;100.00;102470.56;4401597;26;20005;-59
2024/04/10 01:23:43;;;;;;;10.90;1.92;;;7.00;99.90;;;6.24;100.00;102468.13;4401635;26;20030;-59
2024/04/10 01:25:44;;;;;;;9.70;2.53;;;7.00;99.90;;;6.26;100.00;102466.25;4401603;26;20001;-59
2024/04/10 01:27:45;;;;;;;14.15;2.10;;;6.90;99.90;;;6.25;100.00;102467.16;4401488;26;20437;-59
2024/04/10 01:29:46;;;;;;;6.93;2.55;;;7.00;99.90;;;6.28;100.00;102479.25;4401793;26;20029;-59
2024/04/10 01:31:47;;;;;;;14.48;3.05;;;6.90;99.90;;;6.27;100.00;102475.81;4401599;26;20012;-59
2024/04/10 01:33:47;;;;;;;9.73;2.17;;;7.00;99.90;;;6.29;100.00;102470.47;4401777;26;20005;-59
2024/04/10 01:35:48;;;;;;;7.70;2.38;;;7.00;99.90;;;6.28;100.00;102469.63;4401543;26;20006;-59
2024/04/10 01:37:49;;;;;;;11.30;2.90;;;7.00;99.90;;;6.25;100.00;102468.94;4401715;26;20006;-59
2024/04/10 01:39:50;;;;;;;7.57;2.00;;;7.00;99.90;;;6.27;100.00;102473.19;4401511;26;20177;-59
2024/04/10 01:41:51;;;;;;;9.20;3.63;;;7.00;99.90;;;6.23;100.00;102470.81;4401786;26;20030;-59
2024/04/10 01:43:52;;;;;;;9.80;3.00;;;6.90;99.90;;;6.20;100.00;102477.06;4401600;26;20017;-60
2024/04/10 01:45:53;;;;;;;11.50;2.90;;;6.90;99.90;;;6.22;100.00;102482.22;4401580;26;20079;-60
2024/04/10 01:47:54;;;;;;;14.10;4.72;;;6.90;99.90;;;6.17;100.00;102472.00;4401872;26;20026;-59
2024/04/10 01:49:54;;;;;;;13.55;2.60;;;6.90;99.90;;;6.16;100.00;102479.94;4401716;26;20017;-59
2024/04/10 01:51:55;;;;;;;12.48;3.60;;;6.80;99.90;;;6.12;100.00;102480.09;4401026;26;20013;-59
2024/04/10 01:53:56;;;;;;;8.02;2.55;;;6.80;99.90;;;6.05;100.00;102475.31;4401310;26;20037;-59
2024/04/10 01:55:57;;;;;;;9.45;3.50;;;6.80;99.90;;;6.07;100.00;102486.53;4401165;26;20442;-59
2024/04/10 01:57:59;;;;;;;9.50;2.83;;;6.80;99.90;;;6.04;100.00;102481.47;4401383;26;20034;-59
2024/04/10 02:00:00;;;;;;;10.18;2.42;;;6.70;99.90;;;6.02;100.00;102478.09;4401501;26;20005;-59
2024/04/10 02:02:00;;;;;;;9.52;2.60;;;6.70;99.90;;;6.04;100.00;102478.84;4401595;26;20049;-59
2024/04/10 02:04:01;;;;;;;10.68;2.65;;;6.70;99.90;;;6.03;100.00;102477.19;4401529;26;20315;-59
2024/04/10 02:06:02;;;;;;;8.82;2.30;;;6.70;99.90;;;6.06;100.00;102483.06;4401098;26;20006;-59
2024/04/10 02:08:04;;;;;;;9.88;2.20;;;6.70;99.90;;;6.06;100.00;102471.75;4401198;26;20012;-59
2024/04/10 02:10:06;;;;;;;10.27;2.53;;;6.80;99.90;;;6.06;100.00;102480.44;4401375;26;20001;-59
2024/04/10 02:12:07;;;;;;;6.63;2.10;;;6.80;99.90;;;6.05;100.00;102478.78;4401341;26;20035;-59
2024/04/10 02:14:08;;;;;;;11.70;2.78;;;6.80;99.90;;;6.06;100.00;102475.19;4401325;26;20005;-59
2024/04/10 02:16:08;;;;;;;10.98;3.60;;;6.80;99.90;;;6.10;100.00;102478.50;4401415;26;20017;-59
2024/04/10 02:18:09;;;;;;;14.18;2.60;;;6.80;99.90;;;6.08;100.00;102472.50;4401270;27;20015;-59
2024/04/10 02:20:10;;;;;;;12.25;2.92;;;6.90;99.90;;;6.12;100.00;102479.28;4401214;26;20016;-59
2024/04/10 02:22:11;;;;;;;9.63;2.13;;;6.90;99.90;;;6.17;100.00;102482.50;4401158;27;20453;-59
2024/04/10 02:24:12;;;;;;;16.92;3.42;;;6.90;99.90;;;6.17;100.00;102469.38;4401063;26;20013;-59
2024/04/10 02:26:13;;;;;;;14.05;2.72;;;6.90;99.90;;;6.15;100.00;102473.88;4401034;26;20006;-59
2024/04/10 02:28:14;;;;;;;10.63;2.97;;;6.90;99.90;;;6.12;100.00;102467.00;4401223;26;20016;-59
2024/04/10 02:30:15;;;;;;;9.35;2.60;;;6.90;99.90;;;6.09;100.00;102468.97;4401146;27;20009;-59
2024/04/10 02:32:16;;;;;;;7.25;2.97;;;6.90;99.90;;;6.10;100.00;102478.50;4401149;26;20052;-59
2024/04/10 02:34:17;;;;;;;8.35;2.75;;;6.80;99.90;;;6.08;100.00;102473.38;4401026;26;20005;-59
2024/04/10 02:36:18;;;;;;;9.38;3.22;;;6.80;99.90;;;6.10;100.00;102475.88;4401160;26;20017;-59
2024/04/10 02:38:19;;;;;;;10.20;2.90;;;6.80;99.90;;;6.07;100.00;102476.91;4400645;26;20017;-59
2024/04/10 02:40:19;;;;;;;10.18;2.65;;;6.80;99.90;;;6.06;100.00;102472.59;4400836;26;19998;-59
2024/04/10 02:42:20;;;;;;;14.85;3.72;;;6.80;99.90;;;6.05;100.00;102470.06;4400810;26;20169;-59
2024/04/10 02:44:21;;;;;;;12.15;3.38;;;6.80;99.90;;;6.01;100.00;102460.69;4400989;26;20465;-59
2024/04/10 02:46:22;;;;;;;16.42;3.65;;;6.70;99.90;;;6.03;100.00;102459.66;4401023;26;20005;-59
2024/04/10 02:48:23;;;;;;;11.45;4.60;;;6.70;99.90;;;6.02;100.00;102454.53;4400953;26;20038;-59
2024/04/10 02:50:24;;;;;;;9.63;3.40;;;6.70;99.90;;;6.01;100.00;102458.91;4400816;26;20008;-59
2024/04/10 02:52:25;;;;;;;12.05;5.50;;;6.70;99.90;;;6.01;100.00;102458.06;4400667;27;20002;-59
2024/04/10 02:54:26;;;;;;;13.60;4.50;;;6.70;99.90;;;6.01;100.00;102455.44;4400737;26;20017;-59
2024/04/10 02:56:26;;;;;;;10.15;3.35;;;6.70;99.90;;;6.02;100.00;102455.38;4400586;26;20002;-59
2024/04/10 02:58:28;;;;;;;10.93;2.72;;;6.70;99.90;;;6.03;100.00;102456.22;4398928;26;20005;-59
2024/04/10 03:00:29;;;;;;;9.45;3.25;;;6.70;99.90;;;6.04;100.00;102455.28;4386554;26;20001;-59
2024/04/10 03:02:32;;;;;;;9.57;2.28;;;6.70;99.90;;;6.03;100.00;102459.66;4399299;26;20029;-59
2024/04/10 03:04:33;;;;;;;10.07;3.22;;;6.70;99.90;;;5.98;100.00;102456.47;4400348;26;20006;-59
2024/04/10 03:06:34;;;;;;;11.07;2.85;;;6.70;99.90;;;6.02;100.00;102457.13;4400415;26;20461;-59
2024/04/10 03:08:36;;;;;;;8.43;2.33;;;6.70;99.90;;;6.00;100.00;102459.00;4400400;26;20362;-59
2024/04/10 03:10:38;;;;;;;10.27;3.25;;;6.70;99.90;;;5.99;100.00;102458.16;4400678;26;20012;-59
2024/04/10 03:12:40;;;;;;;13.77;2.50;;;6.70;99.90;;;5.96;100.00;102457.47;4400395;26;20032;-59
2024/04/10 03:14:42;;;;;;;17.67;3.80;;;6.60;99.90;;;5.93;100.00;102455.88;4400802;27;20020;-59
2024/04/10 03:16:43;;;;;;;15.05;3.30;;;6.60;99.90;;;5.92;100.00;102453.31;4400581;26;20076;-59
2024/04/10 03:18:44;;;;;;;11.90;3.35;;;6.60;99.90;;;5.93;100.00;102457.66;4400411;26;20413;-59
2024/04/10 03:20:45;;;;;;;10.40;3.25;;;6.60;99.90;;;5.93;100.00;102452.41;4400483;26;20025;-59
2024/04/10 03:22:46;;;;;;;8.98;3.50;;;6.60;99.90;;;5.93;100.00;102452.41;4400275;26;20326;-59
2024/04/10 03:24:47;;;;;;;7.70;3.33;;;6.60;99.90;;;5.93;100.00;102453.25;4400889;26;20446;-59
2024/04/10 03:26:48;;;;;;;19.25;4.15;;;6.60;99.90;;;5.96;100.00;102462.72;4400515;26;20083;-59
2024/04/10 03:28:49;;;;;;;9.98;4.15;;;6.60;99.90;;;5.95;100.00;102455.78;4400273;26;20017;-59
2024/04/10 03:30:53;;;;;;;14.02;3.95;;;6.70;99.90;;;5.99;100.00;102458.16;4400310;26;20013;-59
2024/04/10 03:32:54;;;;;;;15.00;3.83;;;6.70;99.90;;;6.00;100.00;102456.38;4400255;26;20352;-59
2024/04/10 03:34:54;;;;;;;12.00;3.35;;;6.70;99.90;;;5.93;100.00;102445.41;4400431;26;20396;-59
2024/04/10 03:36:55;;;;;;;13.82;3.20;;;6.70;99.90;;;6.01;100.00;102461.53;4400255;26;20002;-59
2024/04/10 03:38:57;;;;;;;7.75;2.70;;;6.70;99.90;;;5.98;100.00;102453.84;4400121;26;20434;-59
2024/04/10 03:40:57;;;;;;;10.55;2.78;;;6.80;99.90;;;5.96;100.00;102452.25;4400177;26;20012;-59
2024/04/10 03:42:58;;;;;;;14.27;2.78;;;6.70;99.90;;;5.98;100.00;102466.09;4400339;26;20006;-59
2024/04/10 03:44:59;;;;;;;17.85;3.17;;;6.70;99.90;;;6.00;100.00;102467.69;4399959;26;20028;-59
2024/04/10 03:47:00;;;;;;;14.20;2.47;;;6.70;99.90;;;5.99;100.00;102463.41;4400269;26;20021;-59
2024/04/10 03:49:01;;;;;;;10.73;2.28;;;6.70;99.90;;;5.99;100.00;102459.94;4400352;26;20044;-59
2024/04/10 03:51:02;;;;;;;11.02;1.90;;;6.70;99.90;;;6.00;100.00;102466.88;4400294;26;20006;-59
2024/04/10 03:53:03;;;;;;;10.98;2.60;;;6.70;99.90;;;5.97;100.00;102464.41;4399764;26;20034;-59
2024/04/10 03:55:04;;;;;;;9.45;2.20;;;6.70;99.90;;;5.98;100.00;102466.09;4399938;26;20018;-59
2024/04/10 03:57:05;;;;;;;9.32;2.22;;;6.70;99.90;;;5.99;100.00;102473.03;4399912;27;20002;-59
2024/04/10 03:59:08;;;;;;;13.13;2.40;;;6.70;99.90;;;5.98;100.00;102474.78;4399946;26;20349;-59
2024/04/10 04:01:08;;;;;;;8.57;2.45;;;6.70;99.90;;;6.01;100.00;102484.25;4399842;26;20442;-59
2024/04/10 04:03:09;;;;;;;13.50;2.88;;;6.70;99.90;;;6.01;100.00;102484.25;4400201;26;20005;-59
2024/04/10 04:05:10;;;;;;;11.98;2.03;;;6.70;99.90;;;6.00;100.00;102474.72;4399610;26;20051;-59
2024/04/10 04:07:11;;;;;;;9.35;1.88;;;6.70;99.90;;;5.99;100.00;102483.50;4399827;27;20018;-59
2024/04/10 04:09:12;;;;;;;8.15;2.20;;;6.70;99.90;;;5.99;100.00;102475.63;4400111;26;20425;-59
2024/04/10 04:11:14;;;;;;;5.63;1.75;;;6.70;99.90;;;5.96;100.00;102492.38;4399801;26;20010;-59
2024/04/10 04:13:15;;;;;;;11.90;2.30;;;6.70;99.90;;;5.94;100.00;102475.06;4396643;26;20012;-59
2024/04/10 04:15:16;;;;;;;6.53;2.13;;;6.70;99.90;;;5.94;100.00;102472.44;4401691;26;20006;-59
2024/04/10 04:17:18;;;;;;;5.72;1.60;;;6.70;99.90;;;5.93;100.00;102475.97;4402522;26;20010;-59
2024/04/10 04:19:19;;;;;;;8.90;2.38;;;6.70;99.90;;;5.90;100.00;102468.28;4379915;26;20020;-59
2024/04/10 04:21:20;;;;;;;9.15;2.90;;;6.70;99.90;;;5.93;100.00;102479.44;4402289;26;20001;-59
2024/04/10 04:23:21;;;;;;;6.80;2.25;;;6.70;99.90;;;5.89;100.00;102479.69;4401710;26;20006;-59
2024/04/10 04:25:22;;;;;;;8.93;2.50;;;6.70;99.90;;;5.83;100.00;102478.22;4402426;26;20056;-59
2024/04/10 04:27:25;;;;;;;12.82;2.28;;;6.60;99.90;;;5.85;100.00;102486.00;4402350;26;20034;-59
2024/04/10 04:29:26;;;;;;;6.43;1.85;;;6.60;99.90;;;5.81;100.00;102474.84;4402516;26;20005;-59
2024/04/10 04:31:27;;;;;;;9.27;2.20;;;6.60;99.90;;;5.80;100.00;102467.06;4402222;26;20034;-59
2024/04/10 04:33:28;;;;;;;12.10;1.48;;;6.50;99.90;;;5.83;100.00;102483.44;4402213;26;20020;-59
2024/04/10 04:35:29;;;;;;;8.63;1.98;;;6.60;99.90;;;5.77;100.00;102477.69;4402405;26;20310;-59
2024/04/10 04:37:30;;;;;;;10.30;1.77;;;6.60;99.90;;;5.75;100.00;102482.19;4401866;26;20005;-59
2024/04/10 04:39:31;;;;;;;9.00;1.83;;;6.50;99.90;;;5.75;100.00;102488.25;4402264;26;20041;-59
2024/04/10 04:41:33;;;;;;;5.68;1.65;;;6.50;99.90;;;5.70;100.00;102489.44;4401778;26;20029;-59
2024/04/10 04:43:34;;;;;;;5.85;1.50;;;6.50;99.90;;;5.71;100.00;102493.72;4402028;26;20037;-59
2024/04/10 04:45:39;;;;;;;12.20;2.38;;;6.50;99.90;;;5.71;100.00;102483.25;4401871;26;20026;-59
2024/04/10 04:47:40;;;;;;;8.43;2.00;;;6.50;99.90;;;5.75;100.00;102480.41;4402430;26;20005;-59
2024/04/10 04:49:41;;;;;;;11.02;2.25;;;6.50;99.90;;;5.84;100.00;102495.63;4402196;26;20046;-59
2024/04/10 04:51:42;;;;;;;6.32;2.25;;;6.60;99.90;;;5.91;100.00;102494.38;4401886;26;20471;-59
2024/04/10 04:53:42;;;;;;;10.25;2.20;;;6.70;99.90;;;5.99;100.00;102494.81;4401474;26;20132;-59
2024/04/10 04:55:44;;;;;;;9.90;2.83;;;6.70;99.90;;;6.06;100.00;102490.91;4402175;26;20005;-59
2024/04/10 04:57:45;;;;;;;12.25;4.95;;;6.80;99.90;;;6.13;100.00;102487.03;4402111;26;20005;-59
2024/04/10 04:59:47;;;;;;;10.27;4.25;;;6.90;99.90;;;6.22;100.00;102479.59;4401715;26;20524;-59
2024/04/10 05:01:48;;;;;;;15.63;3.95;;;6.90;99.90;;;6.30;100.00;102480.03;4401489;26;20013;-59
2024/04/10 05:06:08;;;;;;;13.68;3.90;;;7.10;99.90;;;6.63;100.00;102486.00;4401627;26;20101;-59
2024/04/10 05:08:10;;;;;;;18.55;3.33;;;7.30;99.90;;;6.75;100.00;102493.13;4401761;26;20029;-59
2024/04/10 05:10:13;;;;;;;9.93;4.38;;;7.40;99.90;;;6.80;100.00;102503.34;4402078;26;20014;-59
2024/04/10 05:12:13;;;;;;;10.60;3.28;;;7.50;99.90;;;6.77;100.00;102493.03;4402009;26;20017;-60
2024/04/10 05:14:15;;;;;;;10.23;2.67;;;7.50;99.90;;;6.85;100.00;102490.81;4401745;26;20001;-59
2024/04/10 05:16:16;;;;;;;7.32;2.30;;;7.60;99.90;;;6.85;100.00;102501.31;4401969;27;20314;-59
2024/04/10 05:18:17;;;;;;;8.75;2.13;;;7.60;99.90;;;6.78;100.00;102495.56;4402114;26;20016;-59
2024/04/10 05:20:18;;;;;;;12.18;2.47;;;7.60;99.90;;;6.88;100.00;102509.84;4402067;26;20006;-59
2024/04/10 05:22:19;;;;;;;7.85;2.70;;;7.60;99.90;;;6.80;100.00;102504.22;4401514;26;20053;-59
2024/04/10 05:24:23;;;;;;;9.18;2.20;;;7.60;99.90;;;6.76;100.00;102502.69;4401761;26;20442;-59
2024/04/10 05:26:24;;;;;;;5.50;1.88;;;7.50;99.90;;;6.74;100.00;102511.56;4400598;26;20002;-59
2024/04/10 05:28:25;;;;;;;8.85;2.47;;;7.50;99.90;;;6.73;100.00;102515.13;4401887;26;20013;-59
2024/04/10 05:30:26;;;;;;;15.00;3.00;;;7.50;99.90;;;6.68;100.00;102507.53;4401847;26;20013;-60
2024/04/10 05:32:27;;;;;;;10.52;1.85;;;7.50;99.90;;;6.65;100.00;102516.44;4401774;26;20010;-59
2024/04/10 05:34:28;;;;;;;4.45;2.00;;;7.40;99.90;;;6.66;100.00;102520.72;4401737;26;20338;-59
2024/04/10 05:36:29;;;;;;;7.55;2.08;;;7.40;99.90;;;6.64;100.00;102521.75;4401707;27;20010;-59
2024/04/10 05:38:30;;;;;;;7.47;2.30;;;7.40;99.90;;;6.61;100.00;102524.53;4401541;26;20002;-59
2024/04/10 05:40:31;;;;;;;9.85;1.60;;;7.40;99.90;;;6.56;100.00;102519.56;4401451;26;20001;-59
2024/04/10 05:42:36;;;;;;;7.55;1.70;;;7.40;99.90;;;6.56;100.00;102516.94;4401328;26;20025;-59
2024/04/10 05:44:37;;;;;;;7.53;1.85;;;7.30;99.90;;;6.54;100.00;102523.22;4400016;26;20347;-59
2024/04/10 05:46:38;;;;;;;8.05;1.52;;;7.30;99.90;;;6.50;100.00;102519.91;4401250;26;20016;-59
2024/04/10 05:48:39;;;;;;;10.48;2.85;;;7.30;99.90;;;6.54;100.00;102524.03;4401506;26;20484;-59
2024/04/10 05:50:41;;;;;;;5.70;1.48;;;7.30;99.90;;;6.55;100.00;102520.50;4401604;26;20080;-59
2024/04/10 05:52:43;;;;;;;8.48;2.15;;;7.30;99.90;;;6.58;100.00;102522.94;4401509;26;20006;-59
2024/04/10 05:54:53;;;;;;;7.40;1.80;;;7.30;99.90;;;6.63;100.00;102527.94;4399593;26;20076;-59
2024/04/10 05:56:53;;;;;;;4.18;1.73;;;7.40;99.90;;;6.68;100.00;102526.75;4401512;27;20445;-59
2024/04/10 05:58:54;;;;;;;3.92;1.90;;;7.40;99.90;;;6.75;100.00;102526.41;4401499;26;20046;-59
2024/04/10 06:00:55;;;;;;;3.58;1.60;;;7.40;99.90;;;6.82;100.00;102527.72;4401585;26;20005;-59
2024/04/10 06:02:56;;;;;;;10.73;2.33;;;7.50;99.90;;;6.85;100.00;102525.75;4401350;26;20021;-59
2024/04/10 06:04:58;;;;;;;5.25;2.05;;;7.50;99.90;;;6.90;100.00;102523.72;4401259;26;20001;-59
2024/04/10 06:06:59;;;;;;;5.15;2.17;;;7.60;99.90;;;6.95;100.00;102520.84;4401360;26;20006;-59
2024/04/10 06:09:00;;;;;;;5.20;1.73;;;7.60;99.90;;;7.00;100.00;102527.50;4401278;27;20006;-59
2024/04/10 06:11:01;;;;;;;12.60;2.45;;;7.70;99.90;;;7.06;100.00;102523.66;4401374;26;20026;-60
2024/04/10 06:13:02;;;;;;;6.05;1.40;;;7.70;99.90;;;7.12;100.00;102528.56;4401451;26;20016;-59
2024/04/10 06:15:03;;;;;;;4.68;1.67;;;7.80;99.90;;;7.17;100.00;102532.59;4401060;26;20017;-59
2024/04/10 06:17:04;;;;;;;3.90;1.33;;;7.90;99.90;;;7.19;100.00;102535.16;4400851;26;20005;-59
2024/04/10 06:19:05;;;;;;;9.07;2.58;;;7.90;99.90;;;7.28;100.00;102537.22;4401200;26;20573;-59
2024/04/10 06:21:07;;;;;;;11.95;2.35;;;7.90;99.90;;;7.26;100.00;102528.56;4401180;26;20012;-59
2024/04/10 06:23:07;;;;;;;6.47;1.98;;;8.00;99.90;;;7.37;100.00;102531.44;4400304;26;20358;-59
2024/04/10 06:25:09;;;;;;;6.35;2.40;;;8.10;99.90;;;7.46;100.00;102541.38;4400979;27;20024;-60
2024/04/10 06:27:10;;;;;;;5.78;1.42;;;8.10;99.90;;;7.52;100.00;102543.63;4401148;26;20001;-59
2024/04/10 06:29:11;;;;;;;9.68;2.83;;;8.10;99.90;;;7.56;100.00;102555.63;4401187;26;20430;-59
2024/04/10 06:31:13;;;;;;;5.75;1.80;;;8.20;99.90;;;7.58;100.00;102551.16;4401049;26;20006;-59
2024/04/10 06:33:14;;;;;;;12.82;2.63;;;8.20;99.90;;;7.62;100.00;102550.00;4401043;26;20005;-59
2024/04/10 06:35:15;;;;;;;9.98;1.80;;;8.30;99.90;;;7.59;100.00;102547.56;4401081;26;20002;-59
2024/04/10 06:37:16;;;;;;;8.25;2.08;;;8.20;99.90;;;7.56;100.00;102547.75;4400514;27;20458;-59
2024/04/10 06:39:16;;;;;;;10.50;1.85;;;8.20;99.90;;;7.51;100.00;102549.81;4400921;26;20012;-59
2024/04/10 06:41:17;;;;;;;8.35;2.88;;;8.20;99.90;;;7.45;100.00;102544.94;4401132;26;20012;-59
2024/04/10 06:43:18;;;;;;;14.77;2.97;;;8.20;99.90;;;7.35;100.00;102543.78;4400945;26;20386;-59
2024/04/10 06:45:19;;;;;;;9.90;3.25;;;8.10;99.90;;;7.34;100.00;102552.63;4400010;26;20002;-59
2024/04/10 06:47:20;;;;;;;9.00;4.35;;;8.10;99.90;;;7.37;100.00;102555.06;4400771;26;20097;-59
2024/04/10 06:49:21;;;;;;;8.05;3.65;;;8.10;99.90;;;7.46;100.00;102565.00;4400743;26;20125;-59
2024/04/10 06:51:21;;;;;;;10.23;3.50;;;8.10;99.90;;;7.54;100.00;102562.75;4401059;26;20002;-59
2024/04/10 06:53:23;;;;;;;5.88;2.80;;;8.20;99.90;;;7.63;100.00;102564.00;4400581;26;20001;-59
2024/04/10 06:55:24;;;;;;;7.72;3.00;;;8.30;99.90;;;7.73;100.00;102568.59;4400587;26;20009;-59
2024/04/10 06:57:26;;;;;;;9.57;2.97;;;8.40;99.90;;;7.89;100.00;102565.00;4400469;27;20001;-59
2024/04/10 06:59:27;;;;;;;8.25;3.28;;;8.50;99.90;;;8.01;100.00;102569.53;4400754;26;20002;-59
2024/04/10 07:01:28;;;;;;;11.60;3.33;;;8.60;99.90;;;8.09;100.00;102564.66;4400550;26;20005;-59
2024/04/10 07:03:31;;;;;;;13.50;3.38;;;8.60;99.90;;;8.11;100.00;102553.09;4401014;26;20017;-59
2024/04/10 07:05:33;;;;;;;6.20;2.85;;;8.60;99.90;;;8.11;100.00;102562.75;4400272;26;20491;-59
2024/04/10 07:07:33;;;;;;;6.80;2.00;;;8.60;99.90;;;8.06;100.00;102563.06;4400261;27;20017;-59
2024/04/10 07:09:34;;;;;;;11.55;3.15;;;8.70;99.90;;;7.99;100.00;102553.88;4400649;26;20445;-59
2024/04/10 07:11:35;;;;;;;9.98;2.83;;;8.60;99.90;;;8.07;100.00;102562.09;4400308;26;20006;-59
2024/04/10 07:13:36;;;;;;;7.57;2.38;;;8.70;99.90;;;8.24;100.00;102551.38;4400618;26;20012;-59
2024/04/10 07:15:37;;;;;;;13.23;2.78;;;8.90;99.90;;;8.55;100.00;102555.56;4400413;26;20002;-59
2024/04/10 07:17:38;;;;;;;9.43;2.72;;;9.10;99.90;;;8.99;100.00;102576.34;4400655;26;20013;-60
2024/04/10 07:19:38;;;;;;;16.02;3.28;;;9.40;99.90;;;9.32;100.00;102565.34;4400326;26;20012;-59
2024/04/10 07:21:39;;;;;;;13.30;3.05;;;9.70;99.90;;;9.75;100.00;102572.03;4400305;26;20038;-59
2024/04/10 07:23:42;;;;;;;13.30;3.67;;;10.00;99.90;;;10.01;100.00;102573.69;4400007;26;20038;-59
2024/04/10 07:25:43;;;;;;;13.65;3.97;;;10.40;99.90;;;10.31;100.00;102575.97;4400291;26;20002;-59
2024/04/10 07:27:45;;;;;;;12.93;4.00;;;10.70;99.90;;;10.45;100.00;102575.00;4400283;26;20033;-59
2024/04/10 07:29:45;;;;;;;11.45;3.33;;;10.80;99.90;;;10.57;100.00;102574.94;4400628;26;20014;-59
2024/04/10 07:31:46;;;;;;;10.75;2.70;;;11.00;99.90;;;10.67;100.00;102576.91;4400380;26;20027;-59
2024/04/10 07:33:51;;;;;;;13.52;3.53;;;11.10;99.90;;;10.82;100.00;102581.91;4400272;26;20362;-59
2024/04/10 07:35:52;;;;;;;7.43;3.28;;;11.20;99.90;;;10.96;100.00;102584.38;4400440;26;20449;-59
2024/04/10 07:37:52;;;;;;;8.43;2.50;;;11.30;99.90;;;11.18;100.00;102593.34;4400016;26;20006;-59
2024/04/10 07:39:53;;;;;;;7.82;2.90;;;11.50;99.90;;;11.34;100.00;102594.72;4400220;26;20026;-59
2024/04/10 07:41:54;;;;;;;12.27;4.10;;;11.60;99.90;;;11.49;100.00;102601.50;4400195;26;20120;-59
2024/04/10 07:43:55;;;;;;;11.88;3.58;;;11.80;99.90;;;11.57;100.00;102601.75;4400355;26;20042;-60
2024/04/10 07:45:56;;;;;;;10.10;3.63;;;11.90;99.90;;;11.67;100.00;102607.19;4400192;26;20016;-59
2024/04/10 07:48:00;;;;;;;9.60;3.55;;;12.00;99.90;;;11.77;100.00;102612.63;4400318;27;20016;-60
2024/04/10 07:50:01;;;;;;;11.13;4.72;;;12.00;99.90;;;11.86;100.00;102610.09;4399532;26;20314;-60
2024/04/10 07:52:02;;;;;;;9.88;3.95;;;12.10;99.90;;;11.91;100.00;102609.75;4400080;26;20016;-60
2024/04/10 07:54:02;;;;;;;14.63;5.43;;;12.20;99.90;;;12.02;100.00;102605.31;4400353;26;20400;-60
2024/04/10 07:56:05;;;;;;;11.45;4.28;;;12.40;99.90;;;12.12;100.00;102598.34;4399125;27;20002;-59
2024/04/10 07:58:05;;;;;;;11.35;4.75;;;12.40;99.90;;;12.27;100.00;102603.38;4399908;26;20053;-59
2024/04/10 08:00:08;;;;;;;9.27;3.60;;;12.60;99.90;;;12.35;100.00;102611.56;4400096;26;20041;-60
2024/04/10 08:02:09;;;;;;;11.32;3.88;;;12.60;99.90;;;12.46;100.00;102606.22;4400196;26;20001;-59
2024/04/10 08:04:11;;;;;;;13.90;4.65;;;12.70;99.90;;;12.55;100.00;102611.63;4400288;26;20354;-59
2024/04/10 08:06:12;;;;;;;10.73;3.35;;;12.90;99.90;;;12.63;100.00;102608.38;4399932;26;20017;-59
2024/04/10 08:08:13;;;;;;;14.82;3.55;;;13.00;99.90;;;12.61;100.00;102619.09;4399608;27;20029;-59
2024/04/10 08:10:14;;;;;;;12.13;3.15;;;13.10;99.90;;;12.63;100.00;102624.28;4399952;26;20005;-59
2024/04/10 08:12:15;;;;;;;9.38;2.50;;;13.10;99.90;;;12.65;100.00;102619.69;4400205;26;20002;-59
2024/04/10 08:14:16;;;;;;;9.35;2.55;;;13.10;99.90;;;12.75;100.00;102625.94;4399787;26;20083;-59
2024/04/10 08:16:17;;;;;;;10.07;2.65;;;13.20;99.90;;;12.80;100.00;102618.44;4399817;26;20026;-59
2024/04/10 08:18:18;;;;;;;11.27;2.30;;;13.20;99.90;;;12.80;100.00;102607.84;4399799;26;20029;-59
2024/04/10 08:20:19;;;;;;;6.63;2.33;;;13.30;99.90;;;12.77;100.00;102616.91;4400164;27;20006;-59
2024/04/10 08:22:20;;;;;;;10.07;2.50;;;13.30;99.90;;;12.72;100.00;102608.47;4399553;26;20042;-59
2024/04/10 08:24:21;;;;;;;11.82;3.22;;;13.30;99.90;;;12.68;100.00;102603.56;4399791;26;20001;-59
2024/04/10 08:26:21;;;;;;;12.77;3.25;;;13.20;99.90;;;12.68;100.00;102603.56;4399814;26;20005;-59
2024/04/10 08:28:25;;;;;;;6.03;2.45;;;13.20;99.90;;;12.83;100.00;102614.69;4399789;27;20002;-59